createdAt,value
2022-12-25T00:02:12.754Z,10.60
2022-12-25T00:04:39.491Z,10.60
2022-12-25T00:07:06.177Z,10.60
2022-12-25T00:09:32.858Z,10.60
2022-12-25T00:11:59.489Z,10.60
2022-12-25T00:14:26.121Z,10.50
2022-12-25T00:16:52.769Z,10.50
2022-12-25T00:19:19.416Z,10.50
2022-12-25T00:21:46.091Z,10.50
2022-12-25T00:24:12.681Z,10.50
2022-12-25T00:26:39.312Z,10.50
2022-12-25T00:29:05.923Z,10.50
2022-12-25T00:31:34.511Z,10.40
2022-12-25T00:34:01.283Z,10.40
2022-12-25T00:36:28.032Z,10.40
2022-12-25T00:38:54.754Z,10.40
2022-12-25T00:41:42.024Z,10.40
2022-12-25T00:44:12.440Z,10.40
2022-12-25T00:46:39.640Z,10.40
2022-12-25T00:49:06.712Z,10.30
2022-12-25T00:51:33.679Z,10.30
2022-12-25T00:54:00.323Z,10.30
2022-12-25T00:56:27.243Z,10.30
2022-12-25T00:58:54.922Z,10.30
2022-12-25T01:01:22.091Z,10.30
2022-12-25T01:03:48.952Z,10.30
2022-12-25T01:06:15.660Z,10.20
2022-12-25T01:09:01.539Z,10.20
2022-12-25T01:11:28.610Z,10.20
2022-12-25T01:13:55.279Z,10.20
2022-12-25T01:16:21.953Z,10.20
2022-12-25T01:18:48.626Z,10.20
2022-12-25T01:21:17.493Z,10.20
2022-12-25T01:23:44.941Z,10.30
2022-12-25T01:26:13.470Z,10.30
2022-12-25T01:28:40.730Z,10.30
2022-12-25T01:31:13.504Z,10.30
2022-12-25T01:33:42.096Z,10.30
2022-12-25T01:36:23.110Z,10.30
2022-12-25T01:38:50.073Z,10.30
2022-12-25T01:41:18.641Z,10.40
2022-12-25T01:44:13.302Z,10.40
2022-12-25T01:46:40.128Z,10.40
2022-12-25T01:49:16.391Z,10.40
2022-12-25T01:51:57.939Z,10.40
2022-12-25T01:54:35.102Z,10.50
2022-12-25T01:57:08.425Z,10.50
2022-12-25T01:59:35.354Z,10.50
2022-12-25T02:02:03.614Z,10.50
2022-12-25T02:04:39.625Z,10.50
2022-12-25T02:07:15.359Z,10.60
2022-12-25T02:09:44.415Z,10.60
2022-12-25T02:12:18.582Z,10.60
2022-12-25T02:14:47.258Z,10.60
2022-12-25T02:17:26.352Z,10.70
2022-12-25T02:20:11.976Z,10.70
2022-12-25T02:23:04.455Z,10.70
2022-12-25T02:26:02.151Z,10.70
2022-12-25T02:28:52.565Z,10.80
2022-12-25T02:31:42.985Z,10.80
2022-12-25T02:34:31.727Z,10.80
2022-12-25T02:37:19.410Z,10.80
2022-12-25T02:39:59.770Z,10.80
2022-12-25T02:43:12.211Z,10.90
2022-12-25T02:46:19.222Z,10.90
2022-12-25T02:49:10.544Z,10.90
2022-12-25T02:51:59.485Z,10.90
2022-12-25T02:54:50.267Z,11.00
2022-12-25T02:57:39.281Z,11.00
2022-12-25T03:00:25.767Z,11.00
2022-12-25T03:03:12.657Z,11.00
2022-12-25T03:06:00.804Z,11.00
2022-12-25T03:08:32.595Z,11.10
2022-12-25T03:11:24.072Z,11.10
2022-12-25T03:14:24.338Z,11.10
2022-12-25T03:16:56.019Z,11.10
2022-12-25T03:19:48.346Z,11.10
2022-12-25T03:22:46.128Z,11.10
2022-12-25T03:25:32.217Z,11.20
2022-12-25T03:28:00.196Z,11.20
2022-12-25T03:30:55.312Z,11.20
2022-12-25T03:33:45.860Z,11.20
2022-12-25T03:36:25.179Z,11.20
2022-12-25T03:39:38.219Z,11.20
2022-12-25T03:42:24.778Z,11.20
2022-12-25T03:45:23.995Z,11.30
2022-12-25T03:48:11.426Z,11.30
2022-12-25T03:51:05.405Z,11.30
2022-12-25T03:54:16.104Z,11.30
2022-12-25T03:57:02.148Z,11.30
2022-12-25T03:59:47.552Z,11.30
2022-12-25T04:02:33.192Z,11.30
2022-12-25T04:05:18.381Z,11.30
2022-12-25T04:08:03.852Z,11.30
2022-12-25T04:10:49.348Z,11.40
2022-12-25T04:13:34.469Z,11.40
2022-12-25T04:16:19.732Z,11.40
2022-12-25T04:19:04.838Z,11.40
2022-12-25T04:21:50.302Z,11.40
2022-12-25T04:24:35.710Z,11.40
2022-12-25T04:27:21.179Z,11.40
2022-12-25T04:30:06.727Z,11.40
2022-12-25T04:32:52.006Z,11.40
2022-12-25T04:35:37.281Z,11.40
2022-12-25T04:38:03.946Z,11.40
2022-12-25T04:40:30.645Z,11.40
2022-12-25T04:42:57.320Z,11.40
2022-12-25T04:45:23.928Z,11.50
2022-12-25T04:47:50.707Z,11.50
2022-12-25T04:50:17.474Z,11.50
2022-12-25T04:52:44.143Z,11.50
2022-12-25T04:55:11.800Z,11.50
2022-12-25T04:57:38.644Z,11.50
2022-12-25T05:00:06.074Z,11.50
2022-12-25T05:02:33.243Z,11.50
2022-12-25T05:05:00.214Z,11.60
2022-12-25T05:07:26.904Z,11.60
2022-12-25T05:09:53.506Z,11.60
2022-12-25T05:12:20.180Z,11.60
2022-12-25T05:14:47.016Z,11.60
2022-12-25T05:17:13.833Z,11.60
2022-12-25T05:19:40.476Z,11.60
2022-12-25T05:22:07.122Z,11.70
2022-12-25T05:24:33.874Z,11.70
2022-12-25T05:27:00.512Z,11.70
2022-12-25T05:29:27.178Z,11.70
2022-12-25T05:31:53.893Z,11.70
2022-12-25T05:34:20.537Z,11.70
2022-12-25T05:36:47.210Z,11.80
2022-12-25T05:39:13.833Z,11.80
2022-12-25T05:41:40.820Z,11.80
2022-12-25T05:44:07.459Z,11.80
2022-12-25T05:46:34.186Z,11.80
2022-12-25T05:49:00.890Z,11.80
2022-12-25T05:51:27.621Z,11.80
2022-12-25T05:53:54.293Z,11.90
2022-12-25T05:56:20.982Z,11.90
2022-12-25T05:58:47.760Z,11.90
2022-12-25T06:01:18.208Z,11.90
2022-12-25T06:03:45.283Z,11.90
2022-12-25T06:06:12.685Z,11.90
2022-12-25T06:08:39.387Z,11.90
2022-12-25T06:11:07.710Z,11.90
2022-12-25T06:13:35.307Z,11.90
2022-12-25T06:16:06.776Z,11.90
2022-12-25T06:18:37.513Z,11.90
2022-12-25T06:21:12.979Z,11.90
2022-12-25T06:23:40.652Z,11.90
2022-12-25T06:26:10.298Z,11.90
2022-12-25T06:28:37.324Z,11.90
2022-12-25T06:31:16.223Z,11.90
2022-12-25T06:33:43.065Z,11.90
2022-12-25T06:36:12.620Z,11.90
2022-12-25T06:38:39.365Z,11.90
2022-12-25T06:41:11.877Z,11.90
2022-12-25T06:43:38.707Z,11.90
2022-12-25T06:46:08.189Z,11.90
2022-12-25T06:48:35.552Z,11.90
2022-12-25T06:51:03.695Z,11.90
2022-12-25T06:53:37.145Z,11.90
2022-12-25T06:56:09.323Z,11.90
2022-12-25T06:58:36.040Z,11.90
2022-12-25T07:01:15.265Z,11.90
2022-12-25T07:03:44.022Z,11.90
2022-12-25T07:06:11.260Z,11.80
2022-12-25T07:08:38.146Z,11.80
2022-12-25T07:11:05.070Z,11.90
2022-12-25T07:13:31.650Z,11.90
2022-12-25T07:15:59.568Z,11.90
2022-12-25T07:18:27.280Z,11.90
2022-12-25T07:20:55.672Z,11.80
2022-12-25T07:23:23.086Z,11.80
2022-12-25T07:25:57.853Z,11.80
2022-12-25T07:28:25.058Z,11.80
2022-12-25T07:30:51.817Z,11.80
2022-12-25T07:33:19.753Z,11.80
2022-12-25T07:35:46.769Z,11.80
2022-12-25T07:38:14.476Z,11.80
2022-12-25T07:40:41.104Z,11.80
2022-12-25T07:43:07.769Z,11.80
2022-12-25T07:45:34.503Z,11.80
2022-12-25T07:48:05.233Z,11.80
2022-12-25T07:50:33.014Z,11.80
2022-12-25T07:52:59.654Z,11.80
2022-12-25T07:55:26.306Z,11.80
2022-12-25T07:57:53.139Z,11.80
2022-12-25T08:00:20.123Z,11.80
2022-12-25T08:02:50.119Z,11.80
2022-12-25T08:05:16.902Z,11.80
2022-12-25T08:07:43.589Z,11.80
2022-12-25T08:10:10.626Z,11.80
2022-12-25T08:12:37.369Z,11.80
2022-12-25T08:15:04.426Z,11.80
2022-12-25T08:17:31.147Z,11.80
2022-12-25T08:19:57.798Z,11.80
2022-12-25T08:22:24.586Z,11.80
2022-12-25T08:24:51.245Z,11.80
2022-12-25T08:27:17.878Z,11.80
2022-12-25T08:29:44.922Z,11.80
2022-12-25T08:32:11.610Z,11.80
2022-12-25T08:34:38.853Z,11.80
2022-12-25T08:37:05.551Z,11.90
2022-12-25T08:39:32.323Z,11.90
2022-12-25T08:41:58.950Z,11.90
2022-12-25T08:44:25.641Z,12.00
2022-12-25T08:46:52.284Z,12.00
2022-12-25T08:49:19.268Z,12.00
2022-12-25T08:51:46.001Z,12.00
2022-12-25T08:54:12.655Z,12.00
2022-12-25T08:56:39.380Z,12.10
2022-12-25T08:59:06.048Z,12.10
2022-12-25T09:01:32.791Z,12.10
2022-12-25T09:03:59.515Z,12.10
2022-12-25T09:06:26.223Z,12.10
2022-12-25T09:08:52.873Z,12.10
2022-12-25T09:11:20.461Z,12.10
2022-12-25T09:13:48.598Z,12.10
2022-12-25T09:16:18.240Z,12.10
2022-12-25T09:18:44.874Z,12.20
2022-12-25T09:21:13.819Z,12.10
2022-12-25T09:23:40.741Z,12.10
2022-12-25T09:26:10.114Z,12.10
2022-12-25T09:28:36.736Z,12.10
2022-12-25T09:31:04.053Z,12.10
2022-12-25T09:33:30.867Z,12.10
2022-12-25T09:35:59.637Z,12.20
2022-12-25T09:38:28.304Z,12.20
2022-12-25T09:41:19.809Z,12.20
2022-12-25T09:43:53.336Z,12.20
2022-12-25T09:46:23.173Z,12.20
2022-12-25T09:49:04.628Z,12.20
2022-12-25T09:51:36.782Z,12.20
2022-12-25T09:54:11.788Z,12.20
2022-12-25T09:56:38.606Z,12.20
2022-12-25T09:59:17.056Z,12.20
2022-12-25T10:02:02.422Z,12.20
2022-12-25T10:04:51.828Z,12.20
2022-12-25T10:07:31.983Z,12.20
2022-12-25T10:10:25.389Z,12.20
2022-12-25T10:13:04.215Z,12.20
2022-12-25T10:15:33.657Z,12.20
2022-12-25T10:18:25.214Z,12.30
2022-12-25T10:20:54.979Z,12.30
2022-12-25T10:23:34.279Z,12.30
2022-12-25T10:26:01.785Z,12.30
2022-12-25T10:28:33.847Z,12.30
2022-12-25T10:31:13.909Z,12.30
2022-12-25T10:33:40.599Z,12.30
2022-12-25T10:36:09.592Z,12.30
2022-12-25T10:38:39.479Z,12.30
2022-12-25T10:41:19.648Z,12.30
2022-12-25T10:43:50.599Z,12.20
2022-12-25T10:46:18.297Z,12.20
2022-12-25T10:48:53.602Z,12.30
2022-12-25T10:51:31.367Z,12.30
2022-12-25T10:53:58.426Z,12.30
2022-12-25T10:56:25.161Z,12.30
2022-12-25T10:58:51.854Z,12.30
2022-12-25T11:01:21.663Z,12.30
2022-12-25T11:03:52.049Z,12.30
2022-12-25T11:06:26.302Z,12.30
2022-12-25T11:08:59.392Z,12.30
2022-12-25T11:11:27.657Z,12.30
2022-12-25T11:13:58.184Z,12.30
2022-12-25T11:16:32.977Z,12.30
2022-12-25T11:19:00.775Z,12.30
2022-12-25T11:21:30.313Z,12.30
2022-12-25T11:24:17.527Z,12.30
2022-12-25T11:26:53.223Z,12.30
2022-12-25T11:29:49.273Z,12.30
2022-12-25T11:32:31.740Z,12.30
2022-12-25T11:34:58.993Z,12.30
2022-12-25T11:37:39.557Z,12.30
2022-12-25T11:40:13.599Z,12.30
2022-12-25T11:42:44.265Z,12.30
2022-12-25T11:45:24.154Z,12.30
2022-12-25T11:48:07.131Z,12.30
2022-12-25T11:50:37.719Z,12.30
2022-12-25T11:53:37.292Z,12.30
2022-12-25T11:56:11.334Z,12.30
2022-12-25T11:58:42.901Z,12.30
2022-12-25T12:01:36.488Z,12.30
2022-12-25T12:04:12.067Z,12.30
2022-12-25T12:07:03.927Z,12.30
2022-12-25T12:09:56.701Z,12.30
2022-12-25T12:12:46.797Z,12.30
2022-12-25T12:15:35.603Z,12.30
2022-12-25T12:18:27.587Z,12.30
2022-12-25T12:21:02.078Z,12.30
2022-12-25T12:23:31.101Z,12.30
2022-12-25T12:25:57.922Z,12.30
2022-12-25T12:28:28.571Z,12.30
2022-12-25T12:31:00.177Z,12.30
2022-12-25T12:33:38.208Z,12.30
2022-12-25T12:36:06.021Z,12.30
2022-12-25T12:38:34.599Z,12.30
2022-12-25T12:41:03.940Z,12.30
2022-12-25T12:43:32.942Z,12.30
2022-12-25T12:46:07.475Z,12.30
2022-12-25T12:48:40.922Z,12.30
2022-12-25T12:51:30.863Z,12.30
2022-12-25T12:54:25.606Z,12.30
2022-12-25T12:57:04.288Z,12.30
2022-12-25T12:59:40.633Z,12.30
2022-12-25T13:02:32.303Z,12.30
2022-12-25T13:05:17.974Z,12.30
2022-12-25T13:07:59.545Z,12.30
2022-12-25T13:10:32.999Z,12.30
2022-12-25T13:13:14.011Z,12.30
2022-12-25T13:15:45.256Z,12.30
2022-12-25T13:18:14.022Z,12.30
2022-12-25T13:20:54.858Z,12.30
2022-12-25T13:23:29.193Z,12.30
2022-12-25T13:26:01.850Z,12.30
2022-12-25T13:28:33.409Z,12.30
2022-12-25T13:31:20.232Z,12.30
2022-12-25T13:33:57.969Z,12.30
2022-12-25T13:36:26.602Z,12.30
2022-12-25T13:38:56.658Z,12.30
2022-12-25T13:41:53.132Z,12.30
2022-12-25T13:44:24.705Z,12.30
2022-12-25T13:46:51.751Z,12.30
2022-12-25T13:49:21.599Z,12.30
2022-12-25T13:51:49.303Z,12.30
2022-12-25T13:54:17.497Z,12.30
2022-12-25T13:56:56.171Z,12.30
2022-12-25T13:59:25.247Z,12.30
2022-12-25T14:01:54.048Z,12.30
2022-12-25T14:04:23.396Z,12.30
2022-12-25T14:06:51.639Z,12.30
2022-12-25T14:09:18.954Z,12.30
2022-12-25T14:11:49.699Z,12.40
2022-12-25T14:14:23.024Z,12.40
2022-12-25T14:16:53.285Z,12.40
2022-12-25T14:19:31.720Z,12.40
2022-12-25T14:22:05.111Z,12.40
2022-12-25T14:24:34.014Z,12.40
2022-12-25T14:27:03.237Z,12.40
2022-12-25T14:29:42.984Z,12.40
2022-12-25T14:32:18.882Z,12.40
2022-12-25T14:34:47.334Z,12.40
2022-12-25T14:37:20.674Z,12.40
2022-12-25T14:39:55.840Z,12.40
2022-12-25T14:42:31.318Z,12.30
2022-12-25T14:45:07.350Z,12.30
2022-12-25T14:47:50.157Z,12.40
2022-12-25T14:50:25.223Z,12.40
2022-12-25T14:52:52.041Z,12.30
2022-12-25T14:55:22.328Z,12.30
2022-12-25T14:58:17.956Z,12.30
2022-12-25T15:00:44.611Z,12.30
2022-12-25T15:03:32.098Z,12.30
2022-12-25T15:06:20.307Z,12.30
2022-12-25T15:09:14.722Z,12.30
2022-12-25T15:11:41.338Z,12.30
2022-12-25T15:14:07.982Z,12.30
2022-12-25T15:16:42.343Z,12.30
2022-12-25T15:19:10.242Z,12.30
2022-12-25T15:21:37.611Z,12.30
2022-12-25T15:24:04.371Z,12.30
2022-12-25T15:26:32.301Z,12.30
2022-12-25T15:28:59.095Z,12.30
2022-12-25T15:31:29.107Z,12.30
2022-12-25T15:33:58.572Z,12.30
2022-12-25T15:36:26.612Z,12.30
2022-12-25T15:38:53.989Z,12.30
2022-12-25T15:41:43.974Z,12.30
2022-12-25T15:44:12.116Z,12.30
2022-12-25T15:46:39.662Z,12.30
2022-12-25T15:49:06.320Z,12.30
2022-12-25T15:51:33.464Z,12.30
2022-12-25T15:54:00.239Z,12.30
2022-12-25T15:56:27.697Z,12.30
2022-12-25T15:58:54.345Z,12.30
2022-12-25T16:01:21.531Z,12.30
2022-12-25T16:03:48.743Z,12.30
2022-12-25T16:06:17.575Z,12.30
2022-12-25T16:08:44.586Z,12.30
2022-12-25T16:11:11.548Z,12.30
2022-12-25T16:13:38.471Z,12.30
2022-12-25T16:16:06.829Z,12.30
2022-12-25T16:18:33.666Z,12.30
2022-12-25T16:21:00.497Z,12.30
2022-12-25T16:23:27.436Z,12.30
2022-12-25T16:25:54.151Z,12.30
2022-12-25T16:28:20.912Z,12.30
2022-12-25T16:30:47.726Z,12.30
2022-12-25T16:33:15.258Z,12.30
2022-12-25T16:35:41.965Z,12.30
2022-12-25T16:38:08.640Z,12.30
2022-12-25T16:40:35.430Z,12.30
2022-12-25T16:47:01.611Z,12.30
2022-12-25T16:49:28.386Z,12.30
2022-12-25T16:51:55.043Z,12.30
2022-12-25T16:54:21.714Z,12.30
2022-12-25T16:56:48.388Z,12.30
2022-12-25T16:59:15.014Z,12.30
2022-12-25T17:01:45.087Z,12.30
2022-12-25T17:04:11.805Z,12.30
2022-12-25T17:06:38.486Z,12.30
2022-12-25T17:09:05.652Z,12.30
2022-12-25T17:11:32.342Z,12.30
2022-12-25T17:14:01.973Z,12.30
2022-12-25T17:16:31.962Z,12.30
2022-12-25T17:19:15.360Z,12.30
2022-12-25T17:21:41.993Z,12.30
2022-12-25T17:24:09.741Z,12.30
2022-12-25T17:26:36.791Z,12.30
2022-12-25T17:29:03.901Z,12.30
2022-12-25T17:31:30.676Z,12.30
2022-12-25T17:33:59.612Z,12.30
2022-12-25T17:36:26.308Z,12.30
2022-12-25T17:38:52.945Z,12.30
2022-12-25T17:41:20.442Z,12.30
2022-12-25T17:43:48.012Z,12.30
2022-12-25T17:46:17.642Z,12.30
2022-12-25T17:48:45.480Z,12.20
2022-12-25T17:51:15.965Z,12.30
2022-12-25T17:53:44.707Z,12.30
2022-12-25T17:56:11.882Z,12.30
2022-12-25T17:58:39.065Z,12.30
2022-12-25T18:01:11.269Z,12.30
2022-12-25T18:03:38.279Z,12.20
2022-12-25T18:06:06.828Z,12.30
2022-12-25T18:08:39.006Z,12.30
2022-12-25T18:11:15.011Z,12.30
2022-12-25T18:13:44.685Z,12.30
2022-12-25T18:16:12.667Z,12.30
2022-12-25T18:18:39.912Z,12.30
2022-12-25T18:21:07.751Z,12.30
2022-12-25T18:23:34.945Z,12.30
2022-12-25T18:26:06.874Z,12.40
2022-12-25T18:28:34.568Z,12.40
2022-12-25T18:31:01.876Z,12.40
2022-12-25T18:33:28.664Z,12.40
2022-12-25T18:35:59.991Z,12.40
2022-12-25T18:38:27.475Z,12.40
2022-12-25T18:40:54.520Z,12.40
2022-12-25T18:43:21.198Z,12.40
2022-12-25T18:46:07.981Z,12.40
2022-12-25T18:48:35.338Z,12.50
2022-12-25T18:51:08.388Z,12.40
2022-12-25T18:53:35.779Z,12.50
2022-12-25T18:56:15.078Z,12.50
2022-12-25T18:58:42.635Z,12.50
2022-12-25T19:01:20.755Z,12.50
2022-12-25T19:03:49.037Z,12.50
2022-12-25T19:06:22.428Z,12.50
2022-12-25T19:08:49.542Z,12.50
2022-12-25T19:11:17.798Z,12.50
2022-12-25T19:13:44.924Z,12.50
2022-12-25T19:16:12.482Z,12.50
2022-12-25T19:18:39.884Z,12.50
2022-12-25T19:21:08.639Z,12.50
2022-12-25T19:23:37.587Z,12.60
2022-12-25T19:26:05.582Z,12.60
2022-12-25T19:28:32.351Z,12.60
2022-12-25T19:31:00.153Z,12.60
2022-12-25T19:33:26.925Z,12.60
2022-12-25T19:35:53.627Z,12.60
2022-12-25T19:38:20.413Z,12.60
2022-12-25T19:41:00.226Z,12.70
2022-12-25T19:43:32.749Z,12.70
2022-12-25T19:46:01.282Z,12.70
2022-12-25T19:48:29.776Z,12.70
2022-12-25T19:50:56.441Z,12.70
2022-12-25T19:53:23.714Z,12.80
2022-12-25T19:55:52.456Z,12.80
2022-12-25T19:58:20.459Z,12.80
2022-12-25T20:01:00.624Z,12.80
2022-12-25T20:03:27.615Z,12.80
2022-12-25T20:05:54.400Z,12.80
2022-12-25T20:08:21.065Z,12.80
2022-12-25T20:10:47.707Z,12.90
2022-12-25T20:13:14.546Z,12.90
2022-12-25T20:15:41.272Z,12.90
2022-12-25T20:18:07.906Z,13.00
2022-12-25T20:20:34.762Z,13.00
2022-12-25T20:23:01.509Z,13.00
2022-12-25T20:25:28.288Z,13.00
2022-12-25T20:27:55.056Z,13.10
2022-12-25T20:30:21.780Z,13.10
2022-12-25T20:32:50.609Z,13.10
2022-12-25T20:35:17.661Z,13.10
2022-12-25T20:37:44.424Z,13.10
2022-12-25T20:40:11.749Z,13.20
2022-12-25T20:42:38.514Z,13.20
2022-12-25T20:45:07.338Z,13.20
2022-12-25T20:47:34.902Z,13.20
2022-12-25T20:50:01.622Z,13.20
2022-12-25T20:52:28.440Z,13.30
2022-12-25T20:54:55.112Z,13.30
2022-12-25T20:57:21.783Z,13.30
2022-12-25T20:59:48.488Z,13.30
2022-12-25T21:02:35.043Z,13.30
2022-12-25T21:05:02.155Z,13.30
2022-12-25T21:07:28.957Z,13.30
2022-12-25T21:09:55.650Z,13.40
2022-12-25T21:12:22.341Z,13.40
2022-12-25T21:14:48.971Z,13.40
2022-12-25T21:17:17.126Z,13.40
2022-12-25T21:19:44.094Z,13.40
2022-12-25T21:22:10.806Z,13.40
2022-12-25T21:24:37.480Z,13.40
2022-12-25T21:27:04.208Z,13.40
2022-12-25T21:29:30.937Z,13.40
2022-12-25T21:32:16.255Z,13.40
2022-12-25T21:34:43.030Z,13.40
2022-12-25T21:37:09.694Z,13.40
2022-12-25T21:39:36.308Z,13.40
2022-12-25T21:42:04.559Z,13.40
2022-12-25T21:44:31.321Z,13.50
2022-12-25T21:46:58.106Z,13.50
2022-12-25T21:49:43.555Z,13.50
2022-12-25T21:52:10.857Z,13.50
2022-12-25T21:54:37.734Z,13.50
2022-12-25T21:57:04.729Z,13.50
2022-12-25T21:59:31.423Z,13.50
2022-12-25T22:01:59.431Z,13.50
2022-12-25T22:04:26.495Z,13.50
2022-12-25T22:07:11.684Z,13.50
2022-12-25T22:09:38.537Z,13.50
2022-12-25T22:12:26.200Z,13.50
2022-12-25T22:15:02.682Z,13.50
2022-12-25T22:17:50.797Z,13.50
2022-12-25T22:20:24.762Z,13.50
2022-12-25T22:22:52.223Z,13.50
2022-12-25T22:25:20.132Z,13.50
2022-12-25T22:27:47.753Z,13.50
2022-12-25T22:30:23.527Z,13.50
2022-12-25T22:32:51.780Z,13.60
2022-12-25T22:35:18.915Z,13.50
2022-12-25T22:37:46.173Z,13.50
2022-12-25T22:40:16.668Z,13.50
2022-12-25T22:42:43.369Z,13.50
2022-12-25T22:45:10.952Z,13.50
2022-12-25T22:47:38.208Z,13.50
2022-12-25T22:50:05.996Z,13.50
2022-12-25T22:52:32.865Z,13.50
2022-12-25T22:54:59.645Z,13.50
2022-12-25T22:57:26.472Z,13.50
2022-12-25T22:59:53.427Z,13.40
2022-12-25T23:02:20.455Z,13.40
2022-12-25T23:04:47.466Z,13.40
2022-12-25T23:07:15.089Z,13.40
2022-12-25T23:09:43.274Z,13.40
2022-12-25T23:12:30.408Z,13.40
2022-12-25T23:14:57.225Z,13.40
2022-12-25T23:17:43.094Z,13.40
2022-12-25T23:20:30.910Z,13.40
2022-12-25T23:23:16.004Z,13.40
2022-12-25T23:26:01.415Z,13.40
2022-12-25T23:28:46.840Z,13.40
2022-12-25T23:31:13.513Z,13.40
2022-12-25T23:33:40.177Z,13.40
2022-12-25T23:36:07.121Z,13.40
2022-12-25T23:38:33.796Z,13.40
2022-12-25T23:41:00.442Z,13.40
2022-12-25T23:43:27.086Z,13.40
2022-12-25T23:45:53.762Z,13.40
2022-12-25T23:48:20.381Z,13.40
2022-12-25T23:50:46.982Z,13.40
2022-12-25T23:53:13.642Z,13.40
2022-12-25T23:55:42.567Z,13.40
2022-12-25T23:58:09.714Z,13.40
